Time;durP1;ratioP1;P1;durP2;ratioP2;P2;SDS_P1;SDS_P2;PMS_P1;PMS_P2;Temp;Humidity;BMP_temperature;BMP_pressure;BME280_temperature;BME280_humidity;BME280_pressure;Samples;Min_cycle;Max_cycle;Signal;HPM_P1;HPM_P2
2022/10/07 00:00:39;;;;;;;5.83;2.70;;;16.30;99.90;;;;;;1903285;75;21108;-84
2022/10/07 00:03:30;;;;;;;7.70;2.92;;;16.30;99.90;;;;;;1883396;75;21573;-84
2022/10/07 00:09:16;;;;;;;6.78;3.30;;;16.20;99.90;;;;;;1913938;72;28523;-85
2022/10/07 00:12:07;;;;;;;6.67;3.10;;;16.40;99.90;;;;;;1911641;75;21091;-86
2022/10/07 00:14:59;;;;;;;4.47;3.00;;;16.30;99.90;;;;;;1890171;75;21059;-84
2022/10/07 00:17:50;;;;;;;6.35;3.40;;;16.20;99.90;;;;;;1888891;75;21059;-85
2022/10/07 00:20:42;;;;;;;4.15;2.40;;;16.20;99.90;;;;;;1891076;75;21067;-84
2022/10/07 00:26:26;;;;;;;6.62;3.35;;;16.10;99.90;;;;;;1948341;72;22122;-84
2022/10/07 00:29:17;;;;;;;4.37;2.92;;;16.00;99.90;;;;;;1912682;73;21067;-84
2022/10/07 00:32:08;;;;;;;6.62;3.30;;;16.00;99.90;;;;;;1909385;74;21063;-84
2022/10/07 00:35:00;;;;;;;5.30;3.05;;;16.00;99.90;;;;;;1905160;74;21049;-84
2022/10/07 00:37:51;;;;;;;6.20;2.55;;;16.10;99.90;;;;;;1912365;74;21084;-85
2022/10/07 00:46:33;;;;;;;7.20;3.30;;;16.00;99.90;;;;;;1960071;72;22109;-83
2022/10/07 00:49:25;;;;;;;6.42;3.35;;;15.90;99.90;;;;;;1917738;75;22536;-84
2022/10/07 00:52:19;;;;;;;5.92;3.12;;;15.90;99.90;;;;;;1932552;73;21619;-84
2022/10/07 00:55:14;;;;;;;6.33;3.02;;;15.80;99.90;;;;;;1940256;73;21051;-84
2022/10/07 00:58:07;;;;;;;6.17;3.20;;;15.80;99.90;;;;;;1925661;73;21098;-84
2022/10/07 01:06:34;;;;;;;6.92;3.22;;;15.50;99.90;;;;;;1948237;72;22274;-83
2022/10/07 01:09:26;;;;;;;8.05;3.40;;;15.50;99.90;;;;;;1917628;73;21096;-83
2022/10/07 01:12:22;;;;;;;11.65;3.80;;;15.50;99.90;;;;;;1917596;75;21610;-83
2022/10/07 01:18:11;;;;;;;4.12;3.70;;;15.60;99.90;;;;;;1930157;72;22158;-83
2022/10/07 01:21:06;;;;;;;7.65;3.65;;;15.50;99.90;;;;;;1898126;75;21700;-84
2022/10/07 01:24:04;;;;;;;9.25;3.52;;;15.40;99.90;;;;;;1890013;75;21156;-84
2022/10/07 01:27:00;;;;;;;7.45;3.17;;;15.40;99.90;;;;;;1879141;75;21048;-84
2022/10/07 01:29:55;;;;;;;7.03;3.70;;;15.40;99.90;;;;;;1888703;75;21120;-84
2022/10/07 01:32:52;;;;;;;9.13;3.60;;;15.40;99.90;;;;;;1898475;75;21128;-85
2022/10/07 01:35:46;;;;;;;9.73;3.72;;;15.40;99.90;;;;;;1879884;75;21192;-85
2022/10/07 01:38:41;;;;;;;6.62;4.00;;;15.40;99.90;;;;;;1887064;75;21063;-84
2022/10/07 01:44:25;;;;;;;6.55;3.47;;;15.40;99.90;;;;;;1964955;72;22090;-84
2022/10/07 01:47:16;;;;;;;6.72;3.77;;;15.40;99.90;;;;;;1925168;73;21102;-85
2022/10/07 01:50:13;;;;;;;5.90;3.83;;;15.40;99.90;;;;;;1917493;73;21046;-84
2022/10/07 01:56:04;;;;;;;5.05;3.25;;;15.40;99.90;;;;;;1943899;72;22272;-83
2022/10/07 01:59:07;;;;;;;7.72;3.40;;;15.40;99.90;;;;;;1919031;74;21148;-83
2022/10/07 02:04:57;;;;;;;7.03;3.50;;;15.40;99.90;;;;;;1924943;72;22236;-83
2022/10/07 02:10:42;;;;;;;6.30;3.05;;;15.40;99.90;;;;;;1947502;72;22280;-84
2022/10/07 02:16:33;;;;;;;5.83;3.80;;;15.50;99.90;;;;;;1928720;72;28566;-83
2022/10/07 02:19:28;;;;;;;6.80;3.75;;;15.80;99.90;;;;;;1891948;75;21096;-83
2022/10/07 02:25:11;;;;;;;5.47;3.42;;;15.50;99.90;;;;;;1941239;72;22236;-83
2022/10/07 02:28:06;;;;;;;4.90;3.47;;;15.40;99.90;;;;;;1906008;75;21100;-84
2022/10/07 02:33:52;;;;;;;5.35;3.40;;;15.40;99.90;;;;;;1919505;72;22239;-84
2022/10/07 02:39:34;;;;;;;6.17;3.35;;;15.40;99.90;;;;;;1926981;72;22148;-85
2022/10/07 02:42:29;;;;;;;6.10;3.25;;;15.30;99.90;;;;;;1900356;75;21276;-84
2022/10/07 02:45:27;;;;;;;5.70;3.40;;;15.30;99.90;;;;;;1881106;75;21100;-84
2022/10/07 02:48:21;;;;;;;5.50;3.08;;;15.20;99.90;;;;;;1878916;75;21590;-84
2022/10/07 02:51:17;;;;;;;9.13;3.10;;;15.10;99.90;;;;;;1875624;75;21123;-84
2022/10/07 02:54:11;;;;;;;6.05;3.30;;;15.10;99.90;;;;;;1881676;75;21103;-84
2022/10/07 02:57:04;;;;;;;8.63;3.50;;;15.10;99.90;;;;;;1903346;74;21141;-84
2022/10/07 02:59:59;;;;;;;4.50;3.37;;;15.10;99.90;;;;;;1894299;75;21121;-84
2022/10/07 03:02:56;;;;;;;5.70;3.15;;;15.00;99.90;;;;;;1886772;74;21110;-84
2022/10/07 03:05:51;;;;;;;6.15;3.17;;;15.00;99.90;;;;;;1889377;75;21100;-84
2022/10/07 03:08:43;;;;;;;4.15;3.10;;;15.00;99.90;;;;;;1889038;75;21188;-84
2022/10/07 03:14:13;;;;;;;5.03;3.20;;;14.90;99.90;;;;;;1936016;72;22602;-84
2022/10/07 03:19:48;;;;;;;4.50;3.12;;;14.90;99.90;;;;;;1950447;72;22174;-83
2022/10/07 03:22:41;;;;;;;5.20;3.10;;;14.90;99.90;;;;;;1907829;74;21130;-83
2022/10/07 03:25:32;;;;;;;6.22;3.27;;;15.00;99.90;;;;;;1905313;74;21128;-83
2022/10/07 03:28:25;;;;;;;3.60;2.95;;;15.00;99.90;;;;;;1918022;74;21080;-83
2022/10/07 03:31:18;;;;;;;4.47;3.15;;;15.00;99.90;;;;;;1913189;74;21608;-83
2022/10/07 03:34:11;;;;;;;3.87;2.72;;;15.00;99.90;;;;;;1923537;74;21227;-86
2022/10/07 03:39:42;;;;;;;5.08;3.17;;;15.00;99.90;;;;;;1955041;72;22338;-86
2022/10/07 03:42:34;;;;;;;5.47;2.85;;;15.00;99.90;;;;;;1901575;75;21124;-88
2022/10/07 03:45:29;;;;;;;5.90;3.10;;;15.00;99.90;;;;;;1906665;75;21153;-87
2022/10/07 03:48:20;;;;;;;6.17;2.62;;;15.00;99.90;;;;;;1886182;75;21534;-86
2022/10/07 03:51:11;;;;;;;8.28;2.70;;;15.10;99.90;;;;;;1898765;75;21136;-87
2022/10/07 03:54:04;;;;;;;4.65;3.05;;;15.10;99.90;;;;;;1896761;75;21527;-87
2022/10/07 03:59:35;;;;;;;4.08;3.20;;;15.20;99.90;;;;;;1940604;72;22233;-85
2022/10/07 04:05:08;;;;;;;3.85;3.15;;;15.20;99.90;;;;;;1947960;72;22288;-86
2022/10/07 04:07:59;;;;;;;5.42;3.08;;;15.20;99.90;;;;;;1911055;74;21091;-86
2022/10/07 04:10:50;;;;;;;4.87;3.35;;;15.20;99.90;;;;;;1894995;75;21133;-86
2022/10/07 04:13:42;;;;;;;4.20;3.15;;;15.30;99.90;;;;;;1893688;75;21564;-86
2022/10/07 04:16:34;;;;;;;5.58;3.10;;;15.30;99.90;;;;;;1912552;75;21054;-86
2022/10/07 04:19:29;;;;;;;4.08;2.72;;;15.30;99.90;;;;;;1893295;75;21106;-86
2022/10/07 04:28:32;;;;;;;3.83;2.98;;;15.40;99.90;;;;;;1856797;75;21099;-88
2022/10/07 04:34:06;;;;;;;7.30;3.35;;;15.50;99.90;;;;;;1936683;72;22265;-86
2022/10/07 04:39:38;;;;;;;6.25;3.22;;;15.40;99.90;;;;;;1949521;72;22121;-86
2022/10/07 04:45:42;;;;;;;5.78;3.15;;;15.50;99.90;;;;;;1900738;75;21053;-87
2022/10/07 04:48:34;;;;;;;5.05;3.37;;;15.50;99.90;;;;;;1913361;74;21112;-87
2022/10/07 04:51:27;;;;;;;7.12;3.87;;;15.50;99.90;;;;;;1925109;74;21058;-86
2022/10/07 04:54:19;;;;;;;5.60;4.12;;;15.50;99.90;;;;;;1911692;74;21151;-86
2022/10/07 04:57:13;;;;;;;6.50;3.45;;;15.60;99.90;;;;;;1895066;74;21076;-87
2022/10/07 05:00:07;;;;;;;6.95;3.90;;;15.50;99.90;;;;;;1910740;74;21154;-87
2022/10/07 05:02:58;;;;;;;4.83;3.98;;;15.50;99.90;;;;;;1912245;75;21055;-87
2022/10/07 05:05:52;;;;;;;4.83;3.52;;;15.40;99.90;;;;;;1933995;74;21109;-87
2022/10/07 05:08:44;;;;;;;5.45;3.62;;;15.40;99.90;;;;;;1894600;74;21050;-87
2022/10/07 05:14:20;;;;;;;6.35;3.22;;;15.50;99.90;;;;;;1936047;72;22183;-87
2022/10/07 05:19:58;;;;;;;6.70;3.70;;;15.50;99.90;;;;;;1946207;72;22228;-86
2022/10/07 05:22:50;;;;;;;4.45;3.25;;;15.50;99.90;;;;;;1910223;74;21459;-87
2022/10/07 05:28:26;;;;;;;6.55;3.52;;;15.60;99.90;;;;;;1939280;72;27961;-86
2022/10/07 05:31:19;;;;;;;6.42;3.08;;;15.80;99.90;;;;;;1911546;74;21672;-87
2022/10/07 05:34:12;;;;;;;4.37;3.30;;;15.70;99.90;;;;;;1907646;74;21592;-87
2022/10/07 05:39:53;;;;;;;3.33;2.67;;;15.50;99.90;;;;;;1950030;72;22205;-86
2022/10/07 05:42:45;;;;;;;4.17;3.17;;;15.50;99.90;;;;;;1925858;74;21055;-89
2022/10/07 05:45:37;;;;;;;4.67;3.10;;;15.40;99.90;;;;;;1927620;74;21146;-86
2022/10/07 05:48:29;;;;;;;4.10;3.17;;;15.40;99.90;;;;;;1928780;74;21055;-86
2022/10/07 05:51:25;;;;;;;4.60;3.42;;;15.40;99.90;;;;;;1905877;73;21062;-87
2022/10/07 05:57:01;;;;;;;4.42;2.85;;;15.40;99.90;;;;;;1944863;72;22278;-87
2022/10/07 05:59:55;;;;;;;6.55;3.17;;;15.40;99.90;;;;;;1919717;73;21098;-87
2022/10/07 06:05:38;;;;;;;6.72;3.20;;;15.40;99.90;;;;;;1948932;72;22306;-88
2022/10/07 06:08:30;;;;;;;6.12;3.40;;;15.40;99.90;;;;;;1911063;74;21056;-88
2022/10/07 06:14:33;;;;;;;12.88;3.58;;;15.40;99.90;;;;;;1904960;74;21098;-88
2022/10/07 06:17:24;;;;;;;6.55;4.05;;;15.40;99.90;;;;;;1905926;74;21050;-87
2022/10/07 06:20:18;;;;;;;6.95;3.95;;;15.50;99.90;;;;;;1904988;74;21126;-87
2022/10/07 06:23:10;;;;;;;5.30;3.30;;;15.60;99.90;;;;;;1920217;74;21140;-87
2022/10/07 06:26:05;;;;;;;5.35;3.52;;;15.60;99.90;;;;;;1907842;74;21118;-87
2022/10/07 06:28:56;;;;;;;7.42;3.70;;;15.50;99.90;;;;;;1926397;73;21106;-86
2022/10/07 06:34:27;;;;;;;3.80;3.30;;;15.60;99.90;;;;;;1922407;72;22377;-85
2022/10/07 06:37:19;;;;;;;4.58;3.25;;;15.60;99.90;;;;;;1894454;75;21498;-86
2022/10/07 06:40:13;;;;;;;6.47;3.95;;;15.70;99.90;;;;;;1907073;75;21238;-87
2022/10/07 06:43:05;;;;;;;7.55;3.87;;;15.70;99.90;;;;;;1902038;75;21648;-86
2022/10/07 06:46:03;;;;;;;4.35;3.72;;;15.70;99.90;;;;;;1910346;75;21473;-86
2022/10/07 06:48:55;;;;;;;4.97;4.28;;;15.70;99.90;;;;;;1909383;73;21214;-86
2022/10/07 06:51:48;;;;;;;9.28;4.10;;;15.80;99.90;;;;;;1900469;74;21046;-87
2022/10/07 06:54:40;;;;;;;8.55;3.60;;;15.90;99.90;;;;;;1907927;73;21069;-86
2022/10/07 07:00:24;;;;;;;6.28;3.83;;;15.90;99.90;;;;;;1930061;72;22239;-86
2022/10/07 07:03:17;;;;;;;7.47;4.12;;;16.00;99.90;;;;;;1902074;75;21559;-85
2022/10/07 07:06:10;;;;;;;9.98;4.40;;;16.00;99.90;;;;;;1892130;73;21059;-86
2022/10/07 07:11:44;;;;;;;11.78;4.70;;;16.00;99.90;;;;;;1940189;72;22154;-87
2022/10/07 07:14:41;;;;;;;4.97;3.87;;;16.00;99.90;;;;;;1890925;74;21128;-86
2022/10/07 07:17:34;;;;;;;6.22;4.08;;;16.00;99.90;;;;;;1892746;75;21109;-85
2022/10/07 07:20:33;;;;;;;6.03;3.65;;;16.10;99.90;;;;;;1884528;75;21063;-84
2022/10/07 07:23:19;;;;;;;7.97;4.47;;;16.20;99.90;;;;;;1883440;75;21174;-84
2022/10/07 07:26:10;;;;;;;10.45;4.45;;;16.30;99.90;;;;;;1872933;75;21117;-84
2022/10/07 07:35:17;;;;;;;6.17;4.12;;;16.50;99.90;;;;;;1935712;73;22158;-84
2022/10/07 07:40:49;;;;;;;6.83;4.47;;;16.70;99.90;;;;;;1945148;72;22170;-84
2022/10/07 07:43:41;;;;;;;6.20;4.58;;;16.70;99.90;;;;;;1884733;75;21108;-84
2022/10/07 07:46:37;;;;;;;6.42;4.53;;;16.80;99.90;;;;;;1887925;75;21088;-85
2022/10/07 07:49:30;;;;;;;8.88;5.83;;;16.90;99.90;;;;;;1890137;75;21592;-84
2022/10/07 07:55:10;;;;;;;8.78;4.62;;;17.00;99.90;;;;;;1933860;72;22296;-84
2022/10/07 07:58:03;;;;;;;8.80;5.60;;;17.00;99.90;;;;;;1901103;75;21121;-84
2022/10/07 08:03:50;;;;;;;7.90;5.12;;;17.10;99.90;;;;;;1921499;72;38015;-84
2022/10/07 08:09:36;;;;;;;5.15;4.47;;;17.30;99.90;;;;;;1941557;72;22171;-84
2022/10/07 08:15:16;;;;;;;6.17;3.85;;;17.20;99.90;;;;;;1941136;72;22085;-86
2022/10/07 08:20:58;;;;;;;7.15;3.87;;;17.20;99.90;;;;;;1955932;72;22117;-85
2022/10/07 08:23:53;;;;;;;5.72;3.65;;;17.20;99.90;;;;;;1939543;72;21067;-85
2022/10/07 08:29:39;;;;;;;6.50;4.25;;;17.40;99.90;;;;;;1945748;72;22178;-85
2022/10/07 08:32:32;;;;;;;8.38;4.35;;;17.50;99.90;;;;;;1927605;74;21451;-85
2022/10/07 08:35:24;;;;;;;6.67;4.37;;;17.50;99.90;;;;;;1913782;74;21142;-86
2022/10/07 08:38:15;;;;;;;6.35;4.80;;;17.60;99.90;;;;;;1914862;74;21543;-85
2022/10/07 08:41:17;;;;;;;6.85;4.97;;;17.60;99.90;;;;;;1919961;74;21163;-86
2022/10/07 08:44:20;;;;;;;8.45;4.95;;;17.70;99.90;;;;;;1905002;74;21121;-86
2022/10/07 08:50:06;;;;;;;9.85;5.10;;;17.80;99.90;;;;;;1920422;72;22143;-85
2022/10/07 08:53:01;;;;;;;7.42;5.28;;;17.80;99.90;;;;;;1886921;75;21092;-85
2022/10/07 08:55:56;;;;;;;7.08;5.40;;;17.90;99.90;;;;;;1902729;75;21161;-85
2022/10/07 09:04:41;;;;;;;7.33;5.40;;;18.10;99.90;;;;;;1941692;72;22664;-87
2022/10/07 09:10:31;;;;;;;7.97;4.58;;;18.20;99.90;;;;;;1952067;72;22138;-85
2022/10/07 09:13:27;;;;;;;9.33;5.15;;;18.30;99.90;;;;;;1901207;75;21094;-85
2022/10/07 09:16:32;;;;;;;8.43;5.28;;;18.30;99.90;;;;;;1906578;75;21119;-85
2022/10/07 09:19:29;;;;;;;10.45;7.22;;;18.40;99.90;;;;;;1916427;74;21130;-85
2022/10/07 09:22:23;;;;;;;8.68;5.70;;;18.40;99.90;;;;;;1906109;74;21042;-85
2022/10/07 09:25:22;;;;;;;10.23;6.60;;;18.40;99.90;;;;;;1918700;74;21129;-84
2022/10/07 09:28:16;;;;;;;12.15;7.22;;;18.40;99.90;;;;;;1916746;74;21103;-84
2022/10/07 09:31:10;;;;;;;10.85;7.42;;;18.50;99.90;;;;;;1897833;74;21248;-84
2022/10/07 09:34:01;;;;;;;10.28;6.55;;;18.50;99.90;;;;;;1918547;74;21042;-84
2022/10/07 09:37:22;;;;;;;10.53;5.90;;;18.60;99.90;;;;;;1905302;73;21070;-85
2022/10/07 09:40:32;;;;;;;9.05;5.78;;;18.70;99.90;;;;;;1914276;74;21577;-85
2022/10/07 09:43:23;;;;;;;7.97;5.90;;;18.80;99.90;;;;;;1906065;73;21098;-85
2022/10/07 09:46:26;;;;;;;7.53;4.60;;;18.90;99.90;;;;;;1896991;75;21172;-86
2022/10/07 09:49:33;;;;;;;7.10;4.35;;;19.00;99.90;;;;;;1930610;73;21153;-85
2022/10/07 09:55:30;;;;;;;9.13;4.60;;;19.20;99.90;;;;;;2022489;69;22155;-85
2022/10/07 09:58:26;;;;;;;10.53;4.75;;;19.30;99.90;;;;;;1995652;71;21066;-84
2022/10/07 10:01:18;;;;;;;7.42;4.60;;;19.40;99.90;;;;;;1993889;71;21321;-84
2022/10/07 10:04:16;;;;;;;5.92;4.10;;;19.60;99.90;;;;;;1993136;72;21091;-85
2022/10/07 10:10:09;;;;;;;5.65;3.67;;;19.90;99.90;;;;;;1935172;72;22096;-84
2022/10/07 10:13:02;;;;;;;7.28;4.40;;;20.00;99.90;;;;;;1900570;73;21143;-85
2022/10/07 10:15:56;;;;;;;6.15;4.30;;;20.00;99.90;;;;;;1902501;75;21144;-84
2022/10/07 10:18:54;;;;;;;8.80;4.20;;;20.10;99.90;;;;;;1912580;75;21543;-87
2022/10/07 10:21:48;;;;;;;7.25;3.90;;;20.20;99.90;;;;;;1889659;73;21090;-85
2022/10/07 10:27:55;;;;;;;5.67;4.37;;;20.40;99.90;;;;;;1904044;73;21129;-86
2022/10/07 10:30:51;;;;;;;5.20;4.40;;;20.40;99.90;;;;;;1905695;73;21047;-85
2022/10/07 10:36:26;;;;;;;7.67;4.00;;;20.60;99.90;;;;;;1953799;72;22255;-85
2022/10/07 10:39:20;;;;;;;5.60;3.80;;;20.70;99.90;;;;;;1889867;75;21586;-85
2022/10/07 10:42:15;;;;;;;6.42;3.98;;;20.70;99.90;;;;;;1911932;74;21183;-85
2022/10/07 10:45:14;;;;;;;6.10;3.62;;;20.80;99.90;;;;;;1904128;74;21557;-85
2022/10/07 10:48:16;;;;;;;5.22;3.65;;;20.80;99.90;;;;;;1915154;74;21121;-85
2022/10/07 10:51:13;;;;;;;5.87;3.37;;;20.80;99.90;;;;;;1892207;75;21145;-85
2022/10/07 10:54:14;;;;;;;6.77;3.37;;;20.80;99.90;;;;;;1929006;74;21054;-86
2022/10/07 10:57:11;;;;;;;5.45;3.20;;;20.90;99.90;;;;;;1914604;73;21795;-85
2022/10/07 11:03:15;;;;;;;5.40;3.30;;;21.10;99.90;;;;;;1954939;72;22263;-84
2022/10/07 11:06:09;;;;;;;5.05;3.50;;;21.10;99.90;;;;;;1904057;75;21098;-86
2022/10/07 11:09:02;;;;;;;8.43;3.70;;;21.00;99.90;;;;;;1896638;75;21086;-86
2022/10/07 11:11:53;;;;;;;6.20;4.03;;;21.00;99.90;;;;;;1909242;75;21106;-85
2022/10/07 11:14:48;;;;;;;8.25;4.22;;;21.10;99.90;;;;;;1906809;75;21130;-85
2022/10/07 11:17:42;;;;;;;4.10;3.22;;;21.10;99.90;;;;;;1892042;75;21658;-85
2022/10/07 11:20:37;;;;;;;5.20;3.58;;;21.10;99.90;;;;;;1893591;75;21589;-85
2022/10/07 11:23:34;;;;;;;5.80;3.67;;;21.00;99.90;;;;;;1896381;75;21200;-85
2022/10/07 11:26:29;;;;;;;7.15;3.80;;;21.10;99.90;;;;;;1909260;75;21068;-85
2022/10/07 11:29:25;;;;;;;10.25;4.53;;;20.90;99.90;;;;;;1884076;76;21146;-85
2022/10/07 11:32:20;;;;;;;9.08;3.70;;;21.00;99.90;;;;;;1884338;76;21212;-85
2022/10/07 11:35:22;;;;;;;5.87;3.27;;;20.90;99.90;;;;;;1901909;75;21088;-85
2022/10/07 11:41:09;;;;;;;7.95;3.83;;;21.00;99.90;;;;;;1946416;72;22271;-84
2022/10/07 11:44:05;;;;;;;9.80;3.42;;;20.90;99.90;;;;;;1938360;73;21219;-85
2022/10/07 11:49:53;;;;;;;6.58;3.75;;;21.20;99.90;;;;;;1943840;72;22192;-86
2022/10/07 11:52:47;;;;;;;6.55;2.95;;;21.30;99.90;;;;;;1908304;74;21088;-85
2022/10/07 11:55:42;;;;;;;6.05;2.80;;;21.30;99.90;;;;;;1907301;74;21064;-85
2022/10/07 11:58:36;;;;;;;8.33;2.90;;;21.30;99.90;;;;;;1911983;74;21130;-85
2022/10/07 12:01:56;;;;;;;3.45;2.60;;;21.20;99.90;;;;;;1864225;77;21084;-85
2022/10/07 12:04:48;;;;;;;6.20;2.55;;;21.30;99.90;;;;;;1905279;75;21135;-86
2022/10/07 12:08:00;;;;;;;6.30;2.37;;;21.30;99.90;;;;;;1922580;74;21063;-86
2022/10/07 12:10:54;;;;;;;3.52;2.10;;;21.30;99.90;;;;;;1905311;75;21099;-85
2022/10/07 12:13:48;;;;;;;3.52;2.10;;;21.30;99.90;;;;;;1905223;75;21552;-85
2022/10/07 12:16:54;;;;;;;5.55;2.25;;;21.30;99.90;;;;;;1935437;74;21576;-85
2022/10/07 12:19:45;;;;;;;7.05;2.10;;;21.40;99.90;;;;;;1911213;74;21084;-86
2022/10/07 12:22:36;;;;;;;4.33;1.92;;;21.30;99.90;;;;;;1905758;74;21092;-86
2022/10/07 12:25:31;;;;;;;5.03;2.02;;;21.40;99.90;;;;;;1905505;75;21127;-86
2022/10/07 12:28:27;;;;;;;5.70;2.33;;;21.50;99.90;;;;;;1905092;75;21160;-86
2022/10/07 12:31:47;;;;;;;3.20;1.80;;;21.70;99.90;;;;;;1913137;74;21054;-86
2022/10/07 12:34:42;;;;;;;37.80;5.30;;;21.80;99.90;;;;;;1907214;74;21133;-86
2022/10/07 12:37:49;;;;;;;2.30;2.05;;;21.90;99.90;;;;;;1905120;75;21234;-86
2022/10/07 12:40:41;;;;;;;5.50;1.87;;;21.90;99.90;;;;;;1927742;74;21108;-86
2022/10/07 12:46:28;;;;;;;4.95;1.90;;;22.10;99.90;;;;;;1955465;72;22118;-84
2022/10/07 12:49:22;;;;;;;5.42;2.27;;;22.30;99.90;;;;;;1908103;74;21055;-85
2022/10/07 12:52:18;;;;;;;4.92;2.30;;;22.30;99.90;;;;;;1907249;75;21126;-85
2022/10/07 12:55:14;;;;;;;9.90;2.60;;;22.40;99.90;;;;;;1909204;75;21039;-84
2022/10/07 13:01:22;;;;;;;4.03;1.80;;;22.40;99.90;;;;;;1902974;75;21103;-86
2022/10/07 13:04:30;;;;;;;3.12;2.00;;;22.30;99.90;;;;;;1898129;75;21099;-87
2022/10/07 13:08:06;;;;;;;6.05;1.82;;;22.30;99.90;;;;;;1896581;75;21046;-86
2022/10/07 13:11:15;;;;;;;5.58;1.65;;;22.20;99.90;;;;;;1901156;75;21172;-86
2022/10/07 13:14:10;;;;;;;7.22;2.50;;;22.40;99.90;;;;;;1899941;75;21095;-86
2022/10/07 13:17:05;;;;;;;8.98;2.95;;;22.40;99.90;;;;;;1895632;75;21059;-86
2022/10/07 13:20:08;;;;;;;9.85;1.90;;;22.50;99.90;;;;;;1895043;75;21557;-86
2022/10/07 13:23:04;;;;;;;3.70;2.02;;;22.60;99.90;;;;;;1902555;75;21109;-86
2022/10/07 13:25:58;;;;;;;4.80;2.20;;;22.50;99.90;;;;;;1906900;75;21067;-87
2022/10/07 13:28:51;;;;;;;4.97;2.20;;;22.60;99.90;;;;;;1902652;75;21547;-86
2022/10/07 13:31:44;;;;;;;2.77;1.90;;;22.60;99.90;;;;;;1908366;74;21197;-86
2022/10/07 13:34:36;;;;;;;6.60;2.10;;;22.50;99.90;;;;;;1892872;75;21083;-86
2022/10/07 13:37:30;;;;;;;24.15;4.45;;;22.60;99.90;;;;;;1917896;75;21054;-86
2022/10/07 13:40:27;;;;;;;13.70;4.20;;;22.60;99.90;;;;;;1897250;75;21048;-86
2022/10/07 13:43:19;;;;;;;3.67;2.15;;;22.60;99.90;;;;;;1899528;75;21059;-86
2022/10/07 13:46:11;;;;;;;23.02;4.65;;;22.60;99.90;;;;;;1895716;75;21099;-86
2022/10/07 13:49:04;;;;;;;10.55;2.47;;;22.70;99.90;;;;;;1877836;75;21239;-86
2022/10/07 13:51:59;;;;;;;7.25;2.30;;;22.60;99.90;;;;;;1908045;75;21115;-86
2022/10/07 13:54:54;;;;;;;17.07;3.50;;;22.60;99.90;;;;;;1899474;75;21113;-85
2022/10/07 13:57:46;;;;;;;8.73;2.35;;;22.60;99.90;;;;;;1897810;75;21099;-86
2022/10/07 14:00:42;;;;;;;5.78;2.50;;;22.60;99.90;;;;;;1894952;75;21063;-86
2022/10/07 14:03:34;;;;;;;7.00;2.35;;;22.60;99.90;;;;;;1878708;75;21497;-86
2022/10/07 14:06:47;;;;;;;4.72;1.95;;;22.70;99.90;;;;;;1905064;75;21133;-86
2022/10/07 14:09:46;;;;;;;10.98;2.80;;;22.90;99.90;;;;;;1892550;75;21053;-86
2022/10/07 14:12:40;;;;;;;5.90;2.30;;;23.30;99.90;;;;;;1862878;77;21178;-86
2022/10/07 14:15:34;;;;;;;2.70;1.90;;;24.10;99.90;;;;;;1848521;77;21187;-86
2022/10/07 14:18:30;;;;;;;9.13;2.98;;;24.50;99.90;;;;;;1827399;77;21104;-86
2022/10/07 14:21:21;;;;;;;3.65;2.05;;;25.00;99.90;;;;;;1843909;77;21182;-86
2022/10/07 14:24:19;;;;;;;4.60;2.35;;;25.20;99.90;;;;;;1886202;75;21642;-86
2022/10/07 14:27:44;;;;;;;3.80;2.10;;;24.80;99.90;;;;;;1884347;76;21087;-86
2022/10/07 14:37:07;;;;;;;6.08;2.20;;;25.10;99.90;;;;;;1890339;75;21133;-86
2022/10/07 14:39:59;;;;;;;4.03;2.30;;;24.30;99.90;;;;;;1890416;75;21073;-85
2022/10/07 14:42:52;;;;;;;3.37;2.52;;;23.90;99.90;;;;;;1894756;75;21051;-86
2022/10/07 14:45:43;;;;;;;2.98;2.35;;;23.80;99.90;;;;;;1889751;75;21049;-86
2022/10/07 14:48:35;;;;;;;16.15;3.42;;;23.60;99.90;;;;;;1884228;76;21171;-86
2022/10/07 14:54:17;;;;;;;5.10;2.10;;;23.20;99.90;;;;;;1964701;72;22177;-85
2022/10/07 14:57:10;;;;;;;5.45;2.00;;;23.20;99.90;;;;;;1917398;75;21526;-86
2022/10/07 15:00:01;;;;;;;4.30;2.30;;;23.10;99.90;;;;;;1917564;75;21187;-86
2022/10/07 15:02:55;;;;;;;19.10;3.60;;;23.20;99.90;;;;;;1917624;75;21117;-86
2022/10/07 15:05:47;;;;;;;22.00;4.30;;;23.30;99.90;;;;;;1917663;75;21106;-85
2022/10/07 15:08:39;;;;;;;8.55;2.80;;;23.10;99.90;;;;;;1917601;75;21034;-85
2022/10/07 15:11:31;;;;;;;7.75;2.67;;;23.10;99.90;;;;;;1920492;73;21132;-86
2022/10/07 15:14:22;;;;;;;16.77;4.80;;;23.10;99.90;;;;;;1931463;73;21063;-86
2022/10/07 15:17:14;;;;;;;13.15;3.12;;;23.20;99.90;;;;;;1917648;75;21080;-85
2022/10/07 15:20:07;;;;;;;4.45;2.42;;;24.00;99.90;;;;;;1917546;75;21056;-85
2022/10/07 15:22:59;;;;;;;9.95;2.40;;;25.00;99.90;;;;;;1922115;73;21666;-85
2022/10/07 15:25:52;;;;;;;15.32;3.87;;;25.60;99.90;;;;;;1929272;73;21063;-85
2022/10/07 15:28:43;;;;;;;6.00;2.60;;;25.50;99.90;;;;;;1917674;75;21133;-85
2022/10/07 15:31:36;;;;;;;3.67;2.30;;;24.60;99.90;;;;;;1917561;75;21171;-85
2022/10/07 15:34:28;;;;;;;5.55;2.72;;;24.70;99.90;;;;;;1917488;75;21157;-85
2022/10/07 15:37:20;;;;;;;10.35;3.52;;;25.00;99.90;;;;;;1917693;75;21122;-86
2022/10/07 15:40:13;;;;;;;8.33;3.30;;;25.00;99.90;;;;;;1917530;75;21082;-86
2022/10/07 15:43:07;;;;;;;53.05;8.00;;;25.10;99.90;;;;;;1917701;75;21047;-85
2022/10/07 15:46:02;;;;;;;8.50;2.85;;;25.20;99.90;;;;;;1917931;75;21140;-85
2022/10/07 15:48:56;;;;;;;17.82;2.72;;;25.50;99.90;;;;;;1917606;75;21062;-86
2022/10/07 15:51:48;;;;;;;6.25;2.90;;;25.60;99.90;;;;;;1917876;75;21106;-86
2022/10/07 15:54:40;;;;;;;5.47;2.40;;;24.90;99.90;;;;;;1925106;74;21110;-86
2022/10/07 15:57:32;;;;;;;8.98;2.92;;;23.90;99.90;;;;;;1927514;74;21058;-85
2022/10/07 16:00:24;;;;;;;7.08;2.90;;;23.50;99.90;;;;;;1927164;73;21118;-85
2022/10/07 16:03:16;;;;;;;9.10;3.00;;;23.00;99.90;;;;;;1926998;74;21091;-85
2022/10/07 16:06:12;;;;;;;6.17;2.65;;;22.80;99.90;;;;;;1926640;74;21087;-85
2022/10/07 16:09:04;;;;;;;5.70;2.77;;;22.70;99.90;;;;;;1880266;76;21597;-85
2022/10/07 16:11:55;;;;;;;25.32;5.85;;;22.70;99.90;;;;;;1918364;74;21062;-86
2022/10/07 16:14:47;;;;;;;9.83;3.12;;;22.50;99.90;;;;;;1916969;75;21540;-85
2022/10/07 16:17:39;;;;;;;11.12;2.87;;;22.50;99.90;;;;;;1916953;75;21069;-85
2022/10/07 16:20:31;;;;;;;9.70;3.62;;;22.40;99.90;;;;;;1932820;73;21203;-86
2022/10/07 16:23:23;;;;;;;12.88;3.37;;;22.30;99.90;;;;;;1927626;73;21153;-85
2022/10/07 16:26:16;;;;;;;3.92;2.60;;;22.20;99.90;;;;;;1928261;73;21236;-85
2022/10/07 16:31:59;;;;;;;5.00;3.05;;;22.00;99.90;;;;;;1976426;72;22135;-85
2022/10/07 16:34:51;;;;;;;5.20;2.60;;;21.90;99.90;;;;;;1917576;75;21122;-86
2022/10/07 16:37:43;;;;;;;4.08;2.85;;;21.80;99.90;;;;;;1917629;75;21122;-85
2022/10/07 16:40:36;;;;;;;6.20;2.92;;;21.70;99.90;;;;;;1942450;73;21696;-85
2022/10/07 16:43:29;;;;;;;12.28;3.37;;;21.60;99.90;;;;;;1932021;73;21175;-85
2022/10/07 16:46:22;;;;;;;12.75;3.72;;;21.50;99.90;;;;;;1917641;75;21051;-85
2022/10/07 16:49:15;;;;;;;9.80;3.37;;;21.40;99.90;;;;;;1917645;75;21047;-85
2022/10/07 16:52:09;;;;;;;20.15;4.00;;;21.40;99.90;;;;;;1917636;75;21051;-85
2022/10/07 16:55:00;;;;;;;7.20;2.40;;;21.40;99.90;;;;;;1939298;73;21102;-85
2022/10/07 16:57:52;;;;;;;4.72;2.55;;;21.30;99.90;;;;;;1935267;73;21519;-85
2022/10/07 17:00:44;;;;;;;3.72;2.55;;;21.30;99.90;;;;;;1917629;75;21065;-86
2022/10/07 17:03:36;;;;;;;5.40;2.75;;;21.30;99.90;;;;;;1917564;75;21183;-85
2022/10/07 17:06:30;;;;;;;6.53;3.02;;;21.20;99.90;;;;;;1940300;73;21098;-85
2022/10/07 17:09:23;;;;;;;4.95;3.10;;;21.10;99.90;;;;;;1917755;75;21059;-85
2022/10/07 17:12:15;;;;;;;5.72;2.47;;;21.00;99.90;;;;;;1930912;73;21175;-85
2022/10/07 17:15:10;;;;;;;3.92;2.58;;;21.00;99.90;;;;;;1920692;73;21131;-85
2022/10/07 17:20:43;;;;;;;5.00;2.75;;;20.90;99.90;;;;;;1958301;72;22150;-85
2022/10/07 17:23:35;;;;;;;5.37;2.60;;;20.90;99.90;;;;;;1897677;75;21156;-86
2022/10/07 17:26:27;;;;;;;5.90;2.92;;;20.90;99.90;;;;;;1895442;75;21051;-85
2022/10/07 17:29:20;;;;;;;5.55;2.50;;;20.90;99.90;;;;;;1893465;75;21095;-85
2022/10/07 17:32:13;;;;;;;7.05;2.85;;;20.70;99.90;;;;;;1903992;75;21047;-85
2022/10/07 17:35:07;;;;;;;5.72;2.87;;;20.60;99.90;;;;;;1899019;75;21142;-87
2022/10/07 17:37:58;;;;;;;3.47;2.55;;;20.50;99.90;;;;;;1908332;75;21117;-84
2022/10/07 17:40:50;;;;;;;7.60;3.33;;;20.50;99.90;;;;;;1907141;75;21159;-85
2022/10/07 17:43:41;;;;;;;6.95;3.00;;;20.40;99.90;;;;;;1884714;76;21135;-85
2022/10/07 17:46:35;;;;;;;4.62;2.87;;;20.40;99.90;;;;;;1900422;75;21128;-85
2022/10/07 17:49:27;;;;;;;4.08;2.60;;;20.40;99.90;;;;;;1895823;75;21052;-85
2022/10/07 17:52:34;;;;;;;7.78;2.85;;;20.30;99.90;;;;;;1889471;75;21056;-85
2022/10/07 17:55:26;;;;;;;11.30;3.58;;;20.30;99.90;;;;;;1888707;75;21709;-85
2022/10/07 17:58:18;;;;;;;3.95;3.02;;;20.20;99.90;;;;;;1917465;75;21098;-85
2022/10/07 18:01:16;;;;;;;4.45;2.83;;;20.10;99.90;;;;;;1896203;75;21196;-86
2022/10/07 18:04:11;;;;;;;4.12;3.10;;;20.10;99.90;;;;;;1896530;75;21490;-85